sensor_id;sensor_type;location;lat;lon;timestamp;temperature;humidity
9768;DHT22;4923;52.520;13.494;2022-10-26T00:00:48;9.40;1.00
9768;DHT22;4923;52.520;13.494;2022-10-26T00:03:36;9.30;1.00
9768;DHT22;4923;52.520;13.494;2022-10-26T00:06:25;9.30;1.00
9768;DHT22;4923;52.520;13.494;2022-10-26T00:09:13;9.20;1.00
9768;DHT22;4923;52.520;13.494;2022-10-26T00:12:00;9.20;1.00
9768;DHT22;4923;52.520;13.494;2022-10-26T00:14:48;9.20;1.00
9768;DHT22;4923;52.520;13.494;2022-10-26T00:17:36;9.10;1.00
9768;DHT22;4923;52.520;13.494;2022-10-26T00:20:23;9.10;1.00
9768;DHT22;4923;52.520;13.494;2022-10-26T00:23:10;9.20;1.00
9768;DHT22;4923;52.520;13.494;2022-10-26T00:25:57;9.10;1.00
9768;DHT22;4923;52.520;13.494;2022-10-26T00:28:44;9.10;1.00
9768;DHT22;4923;52.520;13.494;2022-10-26T00:31:32;9.10;1.00
9768;DHT22;4923;52.520;13.494;2022-10-26T00:34:19;9.10;1.00
9768;DHT22;4923;52.520;13.494;2022-10-26T00:37:06;9.10;1.00
9768;DHT22;4923;52.520;13.494;2022-10-26T00:39:54;9.10;1.00
9768;DHT22;4923;52.520;13.494;2022-10-26T00:42:41;9.10;1.00
9768;DHT22;4923;52.520;13.494;2022-10-26T00:45:29;9.00;1.00
9768;DHT22;4923;52.520;13.494;2022-10-26T00:48:21;9.00;1.00
9768;DHT22;4923;52.520;13.494;2022-10-26T00:51:12;8.90;1.00
9768;DHT22;4923;52.520;13.494;2022-10-26T00:54:03;8.90;1.00
9768;DHT22;4923;52.520;13.494;2022-10-26T00:56:51;8.90;1.00
9768;DHT22;4923;52.520;13.494;2022-10-26T00:59:40;8.90;1.00
9768;DHT22;4923;52.520;13.494;2022-10-26T01:02:27;8.80;1.00
9768;DHT22;4923;52.520;13.494;2022-10-26T01:05:16;8.80;1.00
9768;DHT22;4923;52.520;13.494;2022-10-26T01:08:05;8.90;1.00
9768;DHT22;4923;52.520;13.494;2022-10-26T01:10:52;8.90;1.00
9768;DHT22;4923;52.520;13.494;2022-10-26T01:13:41;8.90;1.00
9768;DHT22;4923;52.520;13.494;2022-10-26T01:16:40;8.90;1.00
9768;DHT22;4923;52.520;13.494;2022-10-26T01:22:56;8.80;1.00
9768;DHT22;4923;52.520;13.494;2022-10-26T01:26:09;8.80;1.00
9768;DHT22;4923;52.520;13.494;2022-10-26T01:29:13;8.80;1.00
9768;DHT22;4923;52.520;13.494;2022-10-26T01:32:12;8.80;1.00
9768;DHT22;4923;52.520;13.494;2022-10-26T01:35:05;8.80;1.00
9768;DHT22;4923;52.520;13.494;2022-10-26T01:37:58;8.80;1.00
9768;DHT22;4923;52.520;13.494;2022-10-26T01:40:55;8.70;1.00
9768;DHT22;4923;52.520;13.494;2022-10-26T01:43:48;8.70;1.00
9768;DHT22;4923;52.520;13.494;2022-10-26T01:46:39;8.60;1.00
9768;DHT22;4923;52.520;13.494;2022-10-26T01:49:32;8.60;1.00
9768;DHT22;4923;52.520;13.494;2022-10-26T01:52:21;8.50;1.00
9768;DHT22;4923;52.520;13.494;2022-10-26T01:55:38;8.50;1.00
9768;DHT22;4923;52.520;13.494;2022-10-26T01:58:51;8.50;1.00
9768;DHT22;4923;52.520;13.494;2022-10-26T02:05:19;8.50;1.00
9768;DHT22;4923;52.520;13.494;2022-10-26T02:08:20;8.60;1.00
9768;DHT22;4923;52.520;13.494;2022-10-26T02:11:16;8.50;1.00
9768;DHT22;4923;52.520;13.494;2022-10-26T02:14:12;8.50;1.00
9768;DHT22;4923;52.520;13.494;2022-10-26T02:17:04;8.40;1.00
9768;DHT22;4923;52.520;13.494;2022-10-26T02:19:57;8.40;1.00
9768;DHT22;4923;52.520;13.494;2022-10-26T02:22:49;8.30;1.00
9768;DHT22;4923;52.520;13.494;2022-10-26T02:25:48;8.30;1.00
9768;DHT22;4923;52.520;13.494;2022-10-26T02:28:38;8.30;1.00
9768;DHT22;4923;52.520;13.494;2022-10-26T02:31:28;8.30;1.00
9768;DHT22;4923;52.520;13.494;2022-10-26T02:34:19;8.30;1.00
9768;DHT22;4923;52.520;13.494;2022-10-26T02:37:08;8.20;1.00
9768;DHT22;4923;52.520;13.494;2022-10-26T02:39:57;8.20;1.00
9768;DHT22;4923;52.520;13.494;2022-10-26T02:42:46;8.10;1.00
9768;DHT22;4923;52.520;13.494;2022-10-26T02:45:36;8.10;1.00
9768;DHT22;4923;52.520;13.494;2022-10-26T02:48:24;8.10;1.00
9768;DHT22;4923;52.520;13.494;2022-10-26T02:51:15;8.10;1.00
9768;DHT22;4923;52.520;13.494;2022-10-26T02:54:09;8.10;1.00
9768;DHT22;4923;52.520;13.494;2022-10-26T02:57:06;8.00;1.00
9768;DHT22;4923;52.520;13.494;2022-10-26T02:59:57;8.00;1.00
9768;DHT22;4923;52.520;13.494;2022-10-26T03:02:51;8.00;1.00
9768;DHT22;4923;52.520;13.494;2022-10-26T03:05:41;8.00;1.00
9768;DHT22;4923;52.520;13.494;2022-10-26T03:08:28;8.10;1.00
9768;DHT22;4923;52.520;13.494;2022-10-26T03:11:15;8.10;1.00
9768;DHT22;4923;52.520;13.494;2022-10-26T03:14:04;8.00;1.00
9768;DHT22;4923;52.520;13.494;2022-10-26T03:16:51;8.00;1.00
9768;DHT22;4923;52.520;13.494;2022-10-26T03:19:38;8.00;1.00
9768;DHT22;4923;52.520;13.494;2022-10-26T03:22:24;8.00;1.00
9768;DHT22;4923;52.520;13.494;2022-10-26T03:25:11;8.00;1.00
9768;DHT22;4923;52.520;13.494;2022-10-26T03:28:01;8.00;1.00
9768;DHT22;4923;52.520;13.494;2022-10-26T03:30:50;7.90;1.00
9768;DHT22;4923;52.520;13.494;2022-10-26T03:33:37;7.80;1.00
9768;DHT22;4923;52.520;13.494;2022-10-26T03:36:24;7.80;1.00
9768;DHT22;4923;52.520;13.494;2022-10-26T03:39:11;7.80;1.00
9768;DHT22;4923;52.520;13.494;2022-10-26T03:41:58;7.70;1.00
9768;DHT22;4923;52.520;13.494;2022-10-26T03:44:45;7.70;1.00
9768;DHT22;4923;52.520;13.494;2022-10-26T03:47:39;7.70;1.00
9768;DHT22;4923;52.520;13.494;2022-10-26T03:50:26;7.70;1.00
9768;DHT22;4923;52.520;13.494;2022-10-26T03:53:13;7.70;1.00
9768;DHT22;4923;52.520;13.494;2022-10-26T03:56:00;7.70;1.00
9768;DHT22;4923;52.520;13.494;2022-10-26T03:58:47;7.70;1.00
9768;DHT22;4923;52.520;13.494;2022-10-26T04:01:34;7.70;1.00
9768;DHT22;4923;52.520;13.494;2022-10-26T04:04:22;7.80;1.00
9768;DHT22;4923;52.520;13.494;2022-10-26T04:07:10;7.80;1.00
9768;DHT22;4923;52.520;13.494;2022-10-26T04:09:57;7.70;1.00
9768;DHT22;4923;52.520;13.494;2022-10-26T04:12:43;7.70;1.00
9768;DHT22;4923;52.520;13.494;2022-10-26T04:15:30;7.70;1.00
9768;DHT22;4923;52.520;13.494;2022-10-26T04:18:17;7.70;1.00
9768;DHT22;4923;52.520;13.494;2022-10-26T04:21:06;7.70;1.00
9768;DHT22;4923;52.520;13.494;2022-10-26T04:23:53;7.70;1.00
9768;DHT22;4923;52.520;13.494;2022-10-26T04:26:40;7.70;1.00
9768;DHT22;4923;52.520;13.494;2022-10-26T04:29:26;7.70;1.00
9768;DHT22;4923;52.520;13.494;2022-10-26T04:32:13;7.60;1.00
9768;DHT22;4923;52.520;13.494;2022-10-26T04:35:00;7.70;1.00
9768;DHT22;4923;52.520;13.494;2022-10-26T04:37:49;7.60;1.00
9768;DHT22;4923;52.520;13.494;2022-10-26T04:40:36;7.60;1.00
9768;DHT22;4923;52.520;13.494;2022-10-26T04:43:23;7.60;1.00
9768;DHT22;4923;52.520;13.494;2022-10-26T04:46:10;7.60;1.00
9768;DHT22;4923;52.520;13.494;2022-10-26T04:48:58;7.60;1.30
9768;DHT22;4923;52.520;13.494;2022-10-26T04:51:45;7.60;5.20
9768;DHT22;4923;52.520;13.494;2022-10-26T04:54:33;7.60;6.20
9768;DHT22;4923;52.520;13.494;2022-10-26T04:57:20;7.60;11.90
9768;DHT22;4923;52.520;13.494;2022-10-26T05:00:09;7.60;11.70
9768;DHT22;4923;52.520;13.494;2022-10-26T05:02:58;7.50;14.70
9768;DHT22;4923;52.520;13.494;2022-10-26T05:05:45;7.50;15.10
9768;DHT22;4923;52.520;13.494;2022-10-26T05:08:33;7.50;16.90
9768;DHT22;4923;52.520;13.494;2022-10-26T05:11:21;7.60;21.00
9768;DHT22;4923;52.520;13.494;2022-10-26T05:14:08;7.60;24.50
9768;DHT22;4923;52.520;13.494;2022-10-26T05:16:55;7.60;54.40
9768;DHT22;4923;52.520;13.494;2022-10-26T05:19:42;7.60;78.00
9768;DHT22;4923;52.520;13.494;2022-10-26T05:22:29;7.70;81.40
9768;DHT22;4923;52.520;13.494;2022-10-26T05:25:16;7.70;84.50
9768;DHT22;4923;52.520;13.494;2022-10-26T05:28:06;7.70;89.90
9768;DHT22;4923;52.520;13.494;2022-10-26T05:30:57;7.70;91.30
9768;DHT22;4923;52.520;13.494;2022-10-26T05:33:47;7.70;93.80
9768;DHT22;4923;52.520;13.494;2022-10-26T05:36:34;7.80;95.20
9768;DHT22;4923;52.520;13.494;2022-10-26T05:39:21;7.80;96.20
9768;DHT22;4923;52.520;13.494;2022-10-26T05:42:08;7.80;97.60
9768;DHT22;4923;52.520;13.494;2022-10-26T05:44:57;7.80;98.60
9768;DHT22;4923;52.520;13.494;2022-10-26T05:47:44;7.80;99.60
9768;DHT22;4923;52.520;13.494;2022-10-26T05:50:33;7.80;99.90
9768;DHT22;4923;52.520;13.494;2022-10-26T05:53:20;7.70;99.90
9768;DHT22;4923;52.520;13.494;2022-10-26T05:56:16;7.70;99.90
9768;DHT22;4923;52.520;13.494;2022-10-26T05:59:10;7.70;99.90
9768;DHT22;4923;52.520;13.494;2022-10-26T06:02:05;7.70;99.90
9768;DHT22;4923;52.520;13.494;2022-10-26T06:04:56;7.70;99.90
9768;DHT22;4923;52.520;13.494;2022-10-26T06:07:48;7.70;99.90
9768;DHT22;4923;52.520;13.494;2022-10-26T06:10:36;7.80;99.90
9768;DHT22;4923;52.520;13.494;2022-10-26T06:13:24;7.80;99.90
9768;DHT22;4923;52.520;13.494;2022-10-26T06:16:29;7.80;99.90
9768;DHT22;4923;52.520;13.494;2022-10-26T06:19:27;7.80;99.90
9768;DHT22;4923;52.520;13.494;2022-10-26T06:22:26;7.90;99.90
9768;DHT22;4923;52.520;13.494;2022-10-26T06:25:23;7.90;99.90
9768;DHT22;4923;52.520;13.494;2022-10-26T06:28:21;7.90;99.90
9768;DHT22;4923;52.520;13.494;2022-10-26T06:31:12;7.90;99.90
9768;DHT22;4923;52.520;13.494;2022-10-26T06:34:00;8.00;99.90
9768;DHT22;4923;52.520;13.494;2022-10-26T06:36:48;8.00;99.90
9768;DHT22;4923;52.520;13.494;2022-10-26T06:39:40;8.00;99.90
9768;DHT22;4923;52.520;13.494;2022-10-26T06:42:29;8.10;99.90
9768;DHT22;4923;52.520;13.494;2022-10-26T06:45:17;8.10;99.90
9768;DHT22;4923;52.520;13.494;2022-10-26T06:48:08;8.00;99.90
9768;DHT22;4923;52.520;13.494;2022-10-26T06:50:56;8.00;99.90
9768;DHT22;4923;52.520;13.494;2022-10-26T06:53:50;8.00;99.90
9768;DHT22;4923;52.520;13.494;2022-10-26T06:56:39;8.00;99.90
9768;DHT22;4923;52.520;13.494;2022-10-26T06:59:34;8.00;99.90
9768;DHT22;4923;52.520;13.494;2022-10-26T07:02:23;8.00;99.90
9768;DHT22;4923;52.520;13.494;2022-10-26T07:05:10;8.10;99.90
9768;DHT22;4923;52.520;13.494;2022-10-26T07:07:59;8.10;99.90
9768;DHT22;4923;52.520;13.494;2022-10-26T07:10:47;8.10;99.90
9768;DHT22;4923;52.520;13.494;2022-10-26T07:13:34;8.20;99.90
9768;DHT22;4923;52.520;13.494;2022-10-26T07:16:22;8.40;99.90
9768;DHT22;4923;52.520;13.494;2022-10-26T07:19:09;8.40;99.90
9768;DHT22;4923;52.520;13.494;2022-10-26T07:21:57;8.40;99.90
9768;DHT22;4923;52.520;13.494;2022-10-26T07:24:45;8.40;99.90
9768;DHT22;4923;52.520;13.494;2022-10-26T07:27:36;8.50;99.90
9768;DHT22;4923;52.520;13.494;2022-10-26T07:30:23;8.50;99.90
9768;DHT22;4923;52.520;13.494;2022-10-26T07:33:11;8.60;99.90
9768;DHT22;4923;52.520;13.494;2022-10-26T07:35:59;8.60;99.90
9768;DHT22;4923;52.520;13.494;2022-10-26T07:38:46;8.70;99.90
9768;DHT22;4923;52.520;13.494;2022-10-26T07:41:33;8.80;99.90
9768;DHT22;4923;52.520;13.494;2022-10-26T07:44:21;8.90;99.90
9768;DHT22;4923;52.520;13.494;2022-10-26T07:47:08;9.00;99.90
9768;DHT22;4923;52.520;13.494;2022-10-26T07:49:55;9.10;98.00
9768;DHT22;4923;52.520;13.494;2022-10-26T07:52:42;9.20;95.10
9768;DHT22;4923;52.520;13.494;2022-10-26T07:55:29;9.30;92.80
9768;DHT22;4923;52.520;13.494;2022-10-26T07:58:16;9.40;89.60
9768;DHT22;4923;52.520;13.494;2022-10-26T08:01:09;9.60;90.80
9768;DHT22;4923;52.520;13.494;2022-10-26T08:03:56;10.00;91.30
9768;DHT22;4923;52.520;13.494;2022-10-26T08:06:43;10.10;84.90
9768;DHT22;4923;52.520;13.494;2022-10-26T08:09:30;10.10;74.00
9768;DHT22;4923;52.520;13.494;2022-10-26T08:12:17;10.10;61.40
9768;DHT22;4923;52.520;13.494;2022-10-26T08:15:04;10.20;53.40
9768;DHT22;4923;52.520;13.494;2022-10-26T08:17:53;10.30;43.00
9768;DHT22;4923;52.520;13.494;2022-10-26T08:20:40;10.30;30.50
9768;DHT22;4923;52.520;13.494;2022-10-26T08:23:29;10.40;20.20
9768;DHT22;4923;52.520;13.494;2022-10-26T08:26:16;10.50;8.70
9768;DHT22;4923;52.520;13.494;2022-10-26T08:29:03;10.60;1.00
9768;DHT22;4923;52.520;13.494;2022-10-26T08:31:50;10.70;1.00
9768;DHT22;4923;52.520;13.494;2022-10-26T08:34:38;10.70;1.00
9768;DHT22;4923;52.520;13.494;2022-10-26T08:37:26;10.80;1.00
9768;DHT22;4923;52.520;13.494;2022-10-26T08:40:14;11.00;1.00
9768;DHT22;4923;52.520;13.494;2022-10-26T08:43:04;11.10;1.00
9768;DHT22;4923;52.520;13.494;2022-10-26T08:45:58;11.20;1.00
9768;DHT22;4923;52.520;13.494;2022-10-26T08:48:48;11.30;1.00
9768;DHT22;4923;52.520;13.494;2022-10-26T08:51:40;11.40;1.00
9768;DHT22;4923;52.520;13.494;2022-10-26T08:54:34;11.50;1.00
9768;DHT22;4923;52.520;13.494;2022-10-26T08:57:25;11.60;1.00
9768;DHT22;4923;52.520;13.494;2022-10-26T09:00:16;11.70;1.00
9768;DHT22;4923;52.520;13.494;2022-10-26T09:03:11;11.70;1.00
9768;DHT22;4923;52.520;13.494;2022-10-26T09:06:09;11.90;1.00
9768;DHT22;4923;52.520;13.494;2022-10-26T09:09:07;12.00;1.00
9768;DHT22;4923;52.520;13.494;2022-10-26T09:12:04;12.10;1.00
9768;DHT22;4923;52.520;13.494;2022-10-26T09:15:07;12.20;1.00
9768;DHT22;4923;52.520;13.494;2022-10-26T09:18:05;12.30;1.00
9768;DHT22;4923;52.520;13.494;2022-10-26T09:21:01;12.50;1.00
9768;DHT22;4923;52.520;13.494;2022-10-26T09:23:58;12.50;1.00
9768;DHT22;4923;52.520;13.494;2022-10-26T09:26:53;12.60;1.00
9768;DHT22;4923;52.520;13.494;2022-10-26T09:29:41;12.80;1.00
9768;DHT22;4923;52.520;13.494;2022-10-26T09:32:33;12.90;1.00
9768;DHT22;4923;52.520;13.494;2022-10-26T09:35:22;13.00;1.00
9768;DHT22;4923;52.520;13.494;2022-10-26T09:38:14;13.20;1.00
9768;DHT22;4923;52.520;13.494;2022-10-26T09:41:05;13.20;1.00
9768;DHT22;4923;52.520;13.494;2022-10-26T09:44:05;13.30;1.00
9768;DHT22;4923;52.520;13.494;2022-10-26T09:46:59;13.40;99.90
9768;DHT22;4923;52.520;13.494;2022-10-26T09:49:51;13.60;99.90
9768;DHT22;4923;52.520;13.494;2022-10-26T09:52:39;13.70;99.90
9768;DHT22;4923;52.520;13.494;2022-10-26T09:55:26;13.80;99.90
9768;DHT22;4923;52.520;13.494;2022-10-26T09:58:17;13.90;99.90
9768;DHT22;4923;52.520;13.494;2022-10-26T10:01:20;14.00;99.90
9768;DHT22;4923;52.520;13.494;2022-10-26T10:04:18;14.10;99.90
9768;DHT22;4923;52.520;13.494;2022-10-26T10:07:12;14.20;99.90
9768;DHT22;4923;52.520;13.494;2022-10-26T10:10:08;14.30;99.90
9768;DHT22;4923;52.520;13.494;2022-10-26T10:12:55;14.40;99.90
9768;DHT22;4923;52.520;13.494;2022-10-26T10:15:51;14.50;99.90
9768;DHT22;4923;52.520;13.494;2022-10-26T10:18:41;14.60;99.90
9768;DHT22;4923;52.520;13.494;2022-10-26T10:21:35;14.70;99.90
9768;DHT22;4923;52.520;13.494;2022-10-26T10:24:25;14.90;96.10
9768;DHT22;4923;52.520;13.494;2022-10-26T10:27:16;15.00;63.60
9768;DHT22;4923;52.520;13.494;2022-10-26T10:30:19;15.10;32.00
9768;DHT22;4923;52.520;13.494;2022-10-26T10:33:09;15.20;2.60
9768;DHT22;4923;52.520;13.494;2022-10-26T10:36:03;15.30;1.00
9768;DHT22;4923;52.520;13.494;2022-10-26T10:38:52;15.40;1.00
9768;DHT22;4923;52.520;13.494;2022-10-26T10:41:44;15.50;1.00
9768;DHT22;4923;52.520;13.494;2022-10-26T10:44:32;15.60;1.00
9768;DHT22;4923;52.520;13.494;2022-10-26T10:47:22;15.70;1.00
9768;DHT22;4923;52.520;13.494;2022-10-26T10:50:16;15.80;1.00
9768;DHT22;4923;52.520;13.494;2022-10-26T10:53:17;15.90;1.00
9768;DHT22;4923;52.520;13.494;2022-10-26T10:56:19;16.00;1.00
9768;DHT22;4923;52.520;13.494;2022-10-26T10:59:32;16.10;1.00
9768;DHT22;4923;52.520;13.494;2022-10-26T11:02:49;16.20;1.00
9768;DHT22;4923;52.520;13.494;2022-10-26T11:05:51;16.30;1.00
9768;DHT22;4923;52.520;13.494;2022-10-26T11:08:49;16.40;1.00
9768;DHT22;4923;52.520;13.494;2022-10-26T11:11:41;16.50;1.00
9768;DHT22;4923;52.520;13.494;2022-10-26T11:14:33;16.60;1.00
9768;DHT22;4923;52.520;13.494;2022-10-26T11:17:23;16.60;1.00
9768;DHT22;4923;52.520;13.494;2022-10-26T11:20:14;16.60;1.00
9768;DHT22;4923;52.520;13.494;2022-10-26T11:23:07;16.70;1.00
9768;DHT22;4923;52.520;13.494;2022-10-26T11:26:02;16.70;1.00
9768;DHT22;4923;52.520;13.494;2022-10-26T11:28:53;16.70;1.00
9768;DHT22;4923;52.520;13.494;2022-10-26T11:31:46;16.70;1.00
9768;DHT22;4923;52.520;13.494;2022-10-26T11:34:39;16.70;1.00
9768;DHT22;4923;52.520;13.494;2022-10-26T11:37:33;16.70;1.00
9768;DHT22;4923;52.520;13.494;2022-10-26T11:40:27;16.70;1.00
9768;DHT22;4923;52.520;13.494;2022-10-26T11:43:21;16.80;1.00
9768;DHT22;4923;52.520;13.494;2022-10-26T11:46:12;16.90;1.00
9768;DHT22;4923;52.520;13.494;2022-10-26T11:49:05;16.90;1.00
9768;DHT22;4923;52.520;13.494;2022-10-26T11:52:00;17.00;1.00
9768;DHT22;4923;52.520;13.494;2022-10-26T11:54:52;17.00;1.00
9768;DHT22;4923;52.520;13.494;2022-10-26T11:57:40;17.00;1.00
9768;DHT22;4923;52.520;13.494;2022-10-26T12:00:29;17.00;1.00
9768;DHT22;4923;52.520;13.494;2022-10-26T12:03:19;17.00;1.00
9768;DHT22;4923;52.520;13.494;2022-10-26T12:06:09;17.00;1.00
9768;DHT22;4923;52.520;13.494;2022-10-26T12:09:00;17.10;1.00
9768;DHT22;4923;52.520;13.494;2022-10-26T12:11:55;17.10;1.00
9768;DHT22;4923;52.520;13.494;2022-10-26T12:14:47;17.20;1.00
9768;DHT22;4923;52.520;13.494;2022-10-26T12:17:42;17.20;1.00
9768;DHT22;4923;52.520;13.494;2022-10-26T12:20:51;17.20;1.00
9768;DHT22;4923;52.520;13.494;2022-10-26T12:23:53;17.30;1.00
9768;DHT22;4923;52.520;13.494;2022-10-26T12:26:51;17.40;1.00
9768;DHT22;4923;52.520;13.494;2022-10-26T12:29:46;17.40;1.00
9768;DHT22;4923;52.520;13.494;2022-10-26T12:32:50;17.30;1.00
9768;DHT22;4923;52.520;13.494;2022-10-26T12:35:40;17.40;1.00
9768;DHT22;4923;52.520;13.494;2022-10-26T12:38:55;17.40;1.00
9768;DHT22;4923;52.520;13.494;2022-10-26T12:41:54;17.40;1.00
9768;DHT22;4923;52.520;13.494;2022-10-26T12:45:00;17.40;1.00
9768;DHT22;4923;52.520;13.494;2022-10-26T12:48:03;17.50;1.00
9768;DHT22;4923;52.520;13.494;2022-10-26T12:50:51;17.50;1.00
9768;DHT22;4923;52.520;13.494;2022-10-26T12:53:38;17.50;1.00
9768;DHT22;4923;52.520;13.494;2022-10-26T12:56:29;17.60;1.00
9768;DHT22;4923;52.520;13.494;2022-10-26T12:59:23;17.60;1.00
9768;DHT22;4923;52.520;13.494;2022-10-26T13:02:42;17.60;1.00
9768;DHT22;4923;52.520;13.494;2022-10-26T13:05:50;17.60;1.00
9768;DHT22;4923;52.520;13.494;2022-10-26T13:08:46;17.60;1.00
9768;DHT22;4923;52.520;13.494;2022-10-26T13:11:36;17.60;1.00
9768;DHT22;4923;52.520;13.494;2022-10-26T13:14:38;17.60;1.00
9768;DHT22;4923;52.520;13.494;2022-10-26T13:17:30;17.60;1.00
9768;DHT22;4923;52.520;13.494;2022-10-26T13:20:21;17.70;1.00
9768;DHT22;4923;52.520;13.494;2022-10-26T13:23:28;17.70;1.00
9768;DHT22;4923;52.520;13.494;2022-10-26T13:26:18;17.60;1.00
9768;DHT22;4923;52.520;13.494;2022-10-26T13:29:09;17.60;1.00
9768;DHT22;4923;52.520;13.494;2022-10-26T13:31:57;17.60;1.00
9768;DHT22;4923;52.520;13.494;2022-10-26T13:34:45;17.60;1.00
9768;DHT22;4923;52.520;13.494;2022-10-26T13:37:33;17.50;1.00
9768;DHT22;4923;52.520;13.494;2022-10-26T13:40:24;17.50;1.00
9768;DHT22;4923;52.520;13.494;2022-10-26T13:43:17;17.50;1.00
9768;DHT22;4923;52.520;13.494;2022-10-26T13:46:05;17.50;1.00
9768;DHT22;4923;52.520;13.494;2022-10-26T13:48:58;17.50;1.00
9768;DHT22;4923;52.520;13.494;2022-10-26T13:51:49;17.50;1.00
9768;DHT22;4923;52.520;13.494;2022-10-26T13:54:41;17.50;1.00
9768;DHT22;4923;52.520;13.494;2022-10-26T13:57:35;17.50;1.00
9768;DHT22;4923;52.520;13.494;2022-10-26T14:00:23;17.50;1.00
9768;DHT22;4923;52.520;13.494;2022-10-26T14:03:13;17.50;1.00
9768;DHT22;4923;52.520;13.494;2022-10-26T14:06:03;17.50;1.00
9768;DHT22;4923;52.520;13.494;2022-10-26T14:08:52;17.40;1.00
9768;DHT22;4923;52.520;13.494;2022-10-26T14:11:44;17.40;1.00
9768;DHT22;4923;52.520;13.494;2022-10-26T14:14:36;17.40;1.00
9768;DHT22;4923;52.520;13.494;2022-10-26T14:17:24;17.30;1.00
9768;DHT22;4923;52.520;13.494;2022-10-26T14:20:16;17.30;1.00
9768;DHT22;4923;52.520;13.494;2022-10-26T14:23:04;17.30;1.00
9768;DHT22;4923;52.520;13.494;2022-10-26T14:25:52;17.30;1.00
9768;DHT22;4923;52.520;13.494;2022-10-26T14:28:46;17.30;1.00
9768;DHT22;4923;52.520;13.494;2022-10-26T14:31:36;17.30;1.00
9768;DHT22;4923;52.520;13.494;2022-10-26T14:34:23;17.30;1.00
9768;DHT22;4923;52.520;13.494;2022-10-26T14:37:15;17.20;1.00
9768;DHT22;4923;52.520;13.494;2022-10-26T14:40:14;17.20;1.00
9768;DHT22;4923;52.520;13.494;2022-10-26T14:43:03;17.20;1.00
9768;DHT22;4923;52.520;13.494;2022-10-26T14:45:52;17.10;1.00
9768;DHT22;4923;52.520;13.494;2022-10-26T14:48:50;17.10;1.00
9768;DHT22;4923;52.520;13.494;2022-10-26T14:51:37;17.00;1.00
9768;DHT22;4923;52.520;13.494;2022-10-26T14:54:26;16.90;1.00
9768;DHT22;4923;52.520;13.494;2022-10-26T14:57:31;16.80;1.00
9768;DHT22;4923;52.520;13.494;2022-10-26T15:00:22;16.70;1.00
9768;DHT22;4923;52.520;13.494;2022-10-26T15:03:15;16.70;1.00
9768;DHT22;4923;52.520;13.494;2022-10-26T15:09:38;16.50;1.00
9768;DHT22;4923;52.520;13.494;2022-10-26T15:12:30;16.50;1.00
9768;DHT22;4923;52.520;13.494;2022-10-26T15:15:20;16.40;1.00
9768;DHT22;4923;52.520;13.494;2022-10-26T15:18:18;16.30;1.00
9768;DHT22;4923;52.520;13.494;2022-10-26T15:21:23;16.30;1.00
9768;DHT22;4923;52.520;13.494;2022-10-26T15:24:25;16.30;1.00
9768;DHT22;4923;52.520;13.494;2022-10-26T15:27:15;16.20;1.00
9768;DHT22;4923;52.520;13.494;2022-10-26T15:30:18;16.10;1.00
9768;DHT22;4923;52.520;13.494;2022-10-26T15:33:18;16.10;1.00
9768;DHT22;4923;52.520;13.494;2022-10-26T15:36:14;16.00;1.00
9768;DHT22;4923;52.520;13.494;2022-10-26T15:39:01;16.00;1.00
9768;DHT22;4923;52.520;13.494;2022-10-26T15:41:48;16.00;1.00
9768;DHT22;4923;52.520;13.494;2022-10-26T15:44:38;15.90;1.00
9768;DHT22;4923;52.520;13.494;2022-10-26T15:47:29;15.90;1.00
9768;DHT22;4923;52.520;13.494;2022-10-26T15:50:19;15.90;1.00
9768;DHT22;4923;52.520;13.494;2022-10-26T15:53:14;15.80;1.00
9768;DHT22;4923;52.520;13.494;2022-10-26T15:56:03;15.70;1.00
9768;DHT22;4923;52.520;13.494;2022-10-26T15:58:51;15.60;1.00
9768;DHT22;4923;52.520;13.494;2022-10-26T16:01:40;15.50;1.00
9768;DHT22;4923;52.520;13.494;2022-10-26T16:04:27;15.40;1.00
9768;DHT22;4923;52.520;13.494;2022-10-26T16:07:15;15.40;1.00
9768;DHT22;4923;52.520;13.494;2022-10-26T16:10:02;15.30;1.00
9768;DHT22;4923;52.520;13.494;2022-10-26T16:12:49;15.20;1.00
9768;DHT22;4923;52.520;13.494;2022-10-26T16:15:36;15.10;1.00
9768;DHT22;4923;52.520;13.494;2022-10-26T16:18:25;15.10;1.00
9768;DHT22;4923;52.520;13.494;2022-10-26T16:21:12;15.10;1.00
9768;DHT22;4923;52.520;13.494;2022-10-26T16:23:59;15.00;1.00
9768;DHT22;4923;52.520;13.494;2022-10-26T16:26:46;14.90;1.00
9768;DHT22;4923;52.520;13.494;2022-10-26T16:29:33;14.90;1.00
9768;DHT22;4923;52.520;13.494;2022-10-26T16:32:20;14.80;1.00
9768;DHT22;4923;52.520;13.494;2022-10-26T16:35:09;14.80;1.00
9768;DHT22;4923;52.520;13.494;2022-10-26T16:37:57;14.80;1.00
9768;DHT22;4923;52.520;13.494;2022-10-26T16:40:44;14.80;1.00
9768;DHT22;4923;52.520;13.494;2022-10-26T16:43:31;14.80;1.00
9768;DHT22;4923;52.520;13.494;2022-10-26T16:46:19;14.80;1.00
9768;DHT22;4923;52.520;13.494;2022-10-26T16:49:07;14.80;1.00
9768;DHT22;4923;52.520;13.494;2022-10-26T16:51:55;14.80;1.00
9768;DHT22;4923;52.520;13.494;2022-10-26T16:54:42;14.80;1.00
9768;DHT22;4923;52.520;13.494;2022-10-26T16:57:29;14.70;1.00
9768;DHT22;4923;52.520;13.494;2022-10-26T17:00:17;14.80;1.00
9768;DHT22;4923;52.520;13.494;2022-10-26T17:03:04;14.80;1.00
9768;DHT22;4923;52.520;13.494;2022-10-26T17:05:55;14.80;1.00
9768;DHT22;4923;52.520;13.494;2022-10-26T17:08:43;14.80;1.00
9768;DHT22;4923;52.520;13.494;2022-10-26T17:11:30;14.80;1.00
9768;DHT22;4923;52.520;13.494;2022-10-26T17:14:17;14.80;1.00
9768;DHT22;4923;52.520;13.494;2022-10-26T17:17:04;14.80;1.00
9768;DHT22;4923;52.520;13.494;2022-10-26T17:19:51;14.80;1.00
9768;DHT22;4923;52.520;13.494;2022-10-26T17:22:38;14.80;1.00
9768;DHT22;4923;52.520;13.494;2022-10-26T17:25:26;14.80;1.00
9768;DHT22;4923;52.520;13.494;2022-10-26T17:28:13;14.80;1.00
9768;DHT22;4923;52.520;13.494;2022-10-26T17:31:01;14.80;1.00
9768;DHT22;4923;52.520;13.494;2022-10-26T17:33:49;14.80;1.00
9768;DHT22;4923;52.520;13.494;2022-10-26T17:36:36;14.80;1.00
9768;DHT22;4923;52.520;13.494;2022-10-26T17:39:23;14.80;1.00
9768;DHT22;4923;52.520;13.494;2022-10-26T17:42:11;14.80;1.00
9768;DHT22;4923;52.520;13.494;2022-10-26T17:44:58;14.80;1.00
9768;DHT22;4923;52.520;13.494;2022-10-26T17:47:45;14.70;1.00
9768;DHT22;4923;52.520;13.494;2022-10-26T17:50:32;14.80;1.00
9768;DHT22;4923;52.520;13.494;2022-10-26T17:53:19;14.70;1.00
9768;DHT22;4923;52.520;13.494;2022-10-26T17:56:08;14.70;1.00
9768;DHT22;4923;52.520;13.494;2022-10-26T17:58:58;14.70;1.00
9768;DHT22;4923;52.520;13.494;2022-10-26T18:01:45;14.70;1.00
9768;DHT22;4923;52.520;13.494;2022-10-26T18:04:32;14.60;1.00
9768;DHT22;4923;52.520;13.494;2022-10-26T18:07:18;14.60;1.00
9768;DHT22;4923;52.520;13.494;2022-10-26T18:10:06;14.60;1.00
9768;DHT22;4923;52.520;13.494;2022-10-26T18:12:53;14.60;1.00
9768;DHT22;4923;52.520;13.494;2022-10-26T18:15:41;14.60;1.00
9768;DHT22;4923;52.520;13.494;2022-10-26T18:18:28;14.60;1.00
9768;DHT22;4923;52.520;13.494;2022-10-26T18:21:16;14.60;1.00
9768;DHT22;4923;52.520;13.494;2022-10-26T18:24:04;14.60;1.00
9768;DHT22;4923;52.520;13.494;2022-10-26T18:26:52;14.60;1.00
9768;DHT22;4923;52.520;13.494;2022-10-26T18:29:39;14.70;1.00
9768;DHT22;4923;52.520;13.494;2022-10-26T18:32:27;14.70;1.00
9768;DHT22;4923;52.520;13.494;2022-10-26T18:35:14;14.70;1.00
9768;DHT22;4923;52.520;13.494;2022-10-26T18:38:01;14.70;1.00
9768;DHT22;4923;52.520;13.494;2022-10-26T18:40:51;14.70;1.00
9768;DHT22;4923;52.520;13.494;2022-10-26T18:43:38;14.80;1.00
9768;DHT22;4923;52.520;13.494;2022-10-26T18:46:27;14.80;1.00
9768;DHT22;4923;52.520;13.494;2022-10-26T18:49:16;14.80;1.00